createdAt,value
2023-03-31T00:01:10.635Z,83.24
2023-03-31T00:11:14.566Z,83.78
2023-03-31T00:21:30.867Z,84.10
2023-03-31T00:31:35.200Z,84.36
2023-03-31T00:41:39.548Z,84.42
2023-03-31T00:51:46.398Z,84.83
2023-03-31T01:01:51.685Z,84.77
2023-03-31T01:11:54.959Z,84.44
2023-03-31T01:22:32.524Z,84.16
2023-03-31T01:32:58.607Z,83.84
2023-03-31T01:43:15.150Z,83.92
2023-03-31T01:53:27.821Z,84.19
2023-03-31T02:03:41.009Z,84.14
2023-03-31T02:13:49.889Z,84.22
2023-03-31T02:23:53.251Z,84.30
2023-03-31T02:33:59.777Z,84.33
2023-03-31T02:44:03.451Z,84.11
2023-03-31T02:54:41.947Z,84.17
2023-03-31T03:05:12.974Z,84.48
2023-03-31T03:15:26.680Z,84.44
2023-03-31T03:25:32.609Z,84.38
2023-03-31T03:35:35.799Z,83.73
2023-03-31T03:45:39.823Z,83.36
2023-03-31T03:55:43.087Z,83.86
2023-03-31T04:05:50.055Z,83.98
2023-03-31T04:15:53.422Z,84.11
2023-03-31T04:25:57.308Z,84.02
2023-03-31T04:36:06.956Z,83.48
2023-03-31T04:46:10.651Z,83.52
2023-03-31T04:56:13.865Z,83.20
2023-03-31T05:06:17.541Z,83.28
2023-03-31T05:16:20.694Z,83.94
2023-03-31T05:26:25.768Z,84.72
2023-03-31T05:36:29.954Z,85.52
2023-03-31T05:46:33.173Z,84.52
2023-03-31T05:56:36.342Z,83.84
2023-03-31T06:06:39.388Z,83.07
2023-03-31T06:16:42.425Z,82.08
2023-03-31T06:26:45.738Z,81.46
2023-03-31T06:36:48.904Z,80.28
2023-03-31T06:46:52.109Z,78.99
2023-03-31T06:56:55.629Z,77.58
2023-03-31T07:06:59.784Z,75.32
2023-03-31T07:17:03.535Z,69.67
2023-03-31T07:27:06.910Z,67.69
2023-03-31T07:37:09.963Z,65.06
2023-03-31T07:47:13.229Z,62.96
2023-03-31T07:57:17.944Z,62.51
2023-03-31T08:07:21.158Z,61.40
2023-03-31T08:17:24.404Z,62.05
2023-03-31T08:27:27.757Z,61.64
2023-03-31T08:37:31.762Z,61.23
2023-03-31T08:47:37.297Z,59.94
2023-03-31T08:58:06.399Z,60.17
2023-03-31T09:08:33.807Z,59.47
2023-03-31T09:18:38.848Z,59.28
2023-03-31T09:28:44.025Z,59.16
2023-03-31T09:38:47.565Z,58.74
2023-03-31T09:49:00.636Z,58.89
2023-03-31T09:59:04.478Z,58.36
2023-03-31T10:09:11.351Z,58.26
2023-03-31T10:19:24.923Z,57.25
2023-03-31T10:29:32.762Z,57.25
2023-03-31T10:39:36.749Z,57.36
2023-03-31T10:49:42.081Z,56.71
2023-03-31T11:00:02.049Z,55.32
2023-03-31T11:10:29.797Z,55.92
2023-03-31T11:20:38.747Z,55.68
2023-03-31T11:30:51.371Z,55.44
2023-03-31T11:41:13.988Z,53.78
2023-03-31T11:51:26.969Z,53.52
2023-03-31T12:01:48.713Z,52.52
2023-03-31T12:12:03.819Z,50.78
2023-03-31T12:22:10.130Z,50.56
2023-03-31T12:32:20.911Z,49.67
2023-03-31T12:42:59.497Z,49.88
2023-03-31T12:53:15.640Z,50.23
2023-03-31T13:03:34.352Z,49.45
2023-03-31T13:13:58.258Z,50.64
2023-03-31T13:24:07.310Z,51.13
2023-03-31T13:34:10.420Z,50.46
2023-03-31T13:44:41.350Z,50.27
2023-03-31T13:54:50.755Z,51.79
2023-03-31T14:05:09.108Z,52.72
2023-03-31T14:15:19.526Z,52.45
2023-03-31T14:25:50.556Z,51.66
2023-03-31T14:36:05.390Z,52.70
2023-03-31T14:46:10.138Z,51.88
2023-03-31T14:56:19.420Z,52.72
2023-03-31T15:06:26.402Z,53.62
2023-03-31T15:16:43.580Z,54.35
2023-03-31T15:26:57.146Z,55.74
2023-03-31T15:37:01.981Z,55.24
2023-03-31T15:47:16.217Z,55.99
2023-03-31T15:57:19.977Z,56.95
2023-03-31T16:07:32.270Z,57.04
2023-03-31T16:17:54.474Z,57.11
2023-03-31T16:28:01.356Z,56.44
2023-03-31T16:38:09.439Z,56.06
2023-03-31T16:48:16.709Z,56.14
2023-03-31T16:58:21.282Z,56.65
2023-03-31T17:08:27.996Z,57.00
2023-03-31T17:18:31.363Z,57.41
2023-03-31T17:28:35.539Z,57.80
2023-03-31T17:38:40.082Z,57.88
2023-03-31T17:48:43.800Z,58.22
2023-03-31T17:58:46.967Z,58.81
2023-03-31T18:08:50.032Z,59.37
2023-03-31T18:18:53.194Z,60.40
2023-03-31T18:28:57.569Z,61.34
2023-03-31T18:39:02.024Z,62.09
2023-03-31T18:49:06.012Z,62.89
2023-03-31T18:59:11.774Z,63.55
2023-03-31T19:09:15.002Z,64.16
2023-03-31T19:19:18.131Z,64.32
2023-03-31T19:29:21.376Z,65.14
2023-03-31T19:39:28.291Z,65.70
2023-03-31T19:49:31.762Z,66.10
2023-03-31T19:59:35.811Z,66.04
2023-03-31T20:09:39.011Z,66.43
2023-03-31T20:19:42.303Z,66.65
2023-03-31T20:29:45.464Z,66.74
2023-03-31T20:39:48.877Z,67.01
2023-03-31T20:49:53.230Z,67.26
2023-03-31T20:59:57.420Z,67.86
2023-03-31T21:10:00.825Z,68.40
2023-03-31T21:20:05.720Z,68.69
2023-03-31T21:30:09.449Z,69.17
2023-03-31T21:40:14.438Z,69.76
2023-03-31T21:50:17.703Z,70.44
2023-03-31T22:00:20.836Z,71.65
2023-03-31T22:10:23.935Z,72.16
2023-03-31T22:20:27.188Z,71.74
2023-03-31T22:30:30.533Z,71.44
2023-03-31T22:40:36.798Z,71.09
2023-03-31T22:50:43.807Z,70.80
2023-03-31T23:00:55.802Z,70.48
2023-03-31T23:11:01.897Z,70.13
2023-03-31T23:21:07.991Z,70.00
2023-03-31T23:31:11.171Z,69.60
2023-03-31T23:41:16.134Z,68.92
2023-03-31T23:51:20.749Z,68.75
